Latest Weather Observations for Gympie

IDQ60801

Issued at 3:32 pm EST Thursday 30 July 2015 (issued every 30 minutes, with the page automatically refreshed every 10 minutes)

About weather observations | Map of weather stations | Latest weather observations for QLD | Other Formats
Station Details ID: 040093 Name: GYMPIE Lat: -26.18 Lon: 152.64 Height: 64.5 m
Data from the previous 72 hours. | See also: Recent months at Gympie
Date/Time
EST
Temp
°C
App
Temp
°C
Dew
Point
Rel
Hum
%
Delta-T
°C
Wind Press
QNH
hPa
Press
MSL
hPa
Rain
since 9 am
mm
Dir
 
Spd
km/h
Gust
km/h
Spd
kts
Gust
kts
30/03:00pm 20.5 19.1 9.7 50 5.8 SE 7 11 4 6 1023.8 1023.7 0.0
30/02:30pm 20.9 19.9 8.9 46 6.4 ESE 4 6 2 3 1023.9 1023.8 0.0
30/02:00pm 22.8 21.9 10.6 46 6.7 ESE 6 13 3 7 1024.1 1024.0 0.0
30/01:30pm 21.6 20.5 10.1 48 6.3 SSE 6 9 3 5 1024.6 1024.5 0.0
30/01:00pm 21.5 20.7 9.7 47 6.3 ENE 4 9 2 5 1024.9 1024.8 0.0
30/12:30pm 21.5 20.5 10.9 51 5.8 SSE 7 11 4 6 1025.4 1025.4 0.0
30/12:00pm 20.6 19.6 10.4 52 5.5 SSE 6 11 3 6 1026.1 1026.1 0.0
30/11:30am 20.1 19.0 10.5 54 5.2 SE 7 13 4 7 1026.8 1026.8 0.0
30/11:00am 19.7 18.9 10.9 57 4.8 SE 6 9 3 5 1027.2 1027.2 0.0
30/10:30am 18.8 17.8 11.1 61 4.2 SSE 7 13 4 7 1027.5 1027.5 0.0
30/10:00am 16.8 16.1 10.2 65 3.5 ESE 4 7 2 4 1027.9 1027.9 0.0
30/09:30am 14.4 14.4 9.8 74 2.4 CALM 0 4 0 2 1028.0 1028.0 0.0
30/09:00am 11.4 11.3 9.5 88 1.0 CALM 0 0 0 0 1028.2 1028.2 0.0
30/08:30am 9.9 9.6 8.5 91 0.7 CALM 0 0 0 0 1028.1 1028.1 0.0
30/08:00am 7.5 6.9 7.4 99 0.0 CALM 0 0 0 0 1027.9 1027.9 0.0
30/07:30am 5.2 4.1 5.1 99 0.0 CALM 0 0 0 0 1027.9 1027.9 0.0
30/07:00am 3.8 2.4 3.5 98 0.1 CALM 0 0 0 0 1027.6 1027.6 0.0
30/06:30am 4.0 2.6 3.7 98 0.1 CALM 0 0 0 0 1027.5 1027.5 0.0
30/06:00am 4.1 2.7 3.8 98 0.1 CALM 0 0 0 0 1027.4 1027.4 0.0
30/05:30am 4.2 2.9 3.9 98 0.1 CALM 0 0 0 0 1027.2 1027.2 0.0
30/05:00am 4.3 3.0 4.0 98 0.1 CALM 0 0 0 0 1026.9 1026.9 0.0
30/04:30am 4.3 3.0 3.9 97 0.2 CALM 0 0 0 0 1027.0 1027.0 0.0
30/04:00am 4.3 3.0 3.9 97 0.2 CALM 0 0 0 0 1027.4 1027.4 0.0
30/03:30am 4.8 3.6 4.4 97 0.2 CALM 0 0 0 0 1027.5 1027.5 0.0
30/03:00am 5.4 4.3 5.1 98 0.1 CALM 0 0 0 0 1027.4 1027.4 0.0
30/02:30am 5.3 4.2 4.9 97 0.2 CALM 0 0 0 0 1027.9 1027.9 0.0
30/02:00am 5.8 4.8 5.4 97 0.2 CALM 0 0 0 0 1027.8 1027.8 0.0
30/01:30am 6.3 5.4 5.9 97 0.2 CALM 0 0 0 0 1028.1 1028.1 0.0
30/01:00am 6.7 5.5 6.4 98 0.1 E 2 4 1 2 1028.2 1028.2 0.0
30/12:30am 6.6 5.7 6.0 96 0.3 CALM 0 0 0 0 1028.9 1028.9 0.0
30/12:00am 7.3 6.5 6.6 95 0.3 CALM 0 0 0 0 1029.4 1029.4 0.0
 
Date/Time
EST
Temp
°C
App
Temp
°C
Dew
Point
Rel
Hum
%
Delta-T
°C
Wind Press
QNH
hPa
Press
MSL
hPa
Rain
since 9 am
mm
Dir
 
Spd
km/h
Gust
km/h
Spd
kts
Gust
kts
29/11:30pm 7.5 6.8 7.1 97 0.2 CALM 0 0 0 0 1029.2 1029.2 0.0
29/11:00pm 7.8 7.1 7.1 95 0.3 CALM 0 0 0 0 1029.4 1029.4 0.0
29/10:30pm 8.5 7.9 7.6 94 0.4 CALM 0 0 0 0 1029.4 1029.4 0.0
29/10:00pm 8.5 7.9 7.4 93 0.5 CALM 0 0 0 0 1029.5 1029.5 0.0
29/09:30pm 8.9 8.4 8.0 94 0.4 CALM 0 0 0 0 1029.6 1029.6 0.0
29/09:00pm 9.5 9.1 8.3 92 0.6 CALM 0 0 0 0 1029.6 1029.6 0.0
29/08:30pm 10.0 9.6 8.3 89 0.8 CALM 0 0 0 0 1029.4 1029.4 0.0
29/08:00pm 10.6 10.3 8.5 87 1.0 CALM 0 0 0 0 1029.4 1029.4 0.0
29/07:30pm 11.6 11.3 8.6 82 1.5 CALM 0 0 0 0 1029.2 1029.2 0.0
29/07:00pm 12.6 12.3 8.7 77 1.9 CALM 0 0 0 0 1029.0 1029.0 0.0
29/06:30pm 14.5 13.5 8.7 68 2.9 ESE 4 6 2 3 1028.7 1028.7 0.0
29/06:00pm 15.3 14.3 8.8 65 3.3 ESE 4 7 2 4 1028.3 1028.3 0.0
29/05:30pm 16.0 14.3 8.5 61 3.8 SE 7 11 4 6 1028.0 1028.0 0.0
29/05:00pm 17.6 15.1 8.2 54 4.8 SE 11 17 6 9 1027.8 1027.8 0.0
29/04:30pm 18.6 16.2 8.6 52 5.2 SE 11 20 6 11 1027.6 1027.6 0.0
29/04:00pm 18.3 15.8 8.3 52 5.1 SE 11 19 6 10 1027.6 1027.6 0.0
29/03:30pm 19.8 17.8 8.8 49 5.8 SE 9 17 5 9 1027.5 1027.5 0.0
29/03:00pm 20.4 18.6 9.3 49 5.9 SSE 9 17 5 9 1027.6 1027.6 0.0
29/02:30pm 20.0 17.6 8.7 48 5.9 SE 11 22 6 12 1027.7 1027.7 0.0
29/02:00pm 19.7 16.9 8.7 49 5.7 SE 13 24 7 13 1027.9 1027.9 0.0
29/01:30pm 20.1 17.1 9.1 49 5.8 SE 15 24 8 13 1028.2 1028.2 0.0
29/01:00pm 19.8 17.1 8.8 49 5.7 SE 13 26 7 14 1028.3 1028.3 0.0
29/12:30pm 19.8 17.6 9.4 51 5.5 SSE 11 19 6 10 1028.8 1028.8 0.0
29/12:00pm 19.9 17.2 8.9 49 5.8 SSE 13 20 7 11 1029.3 1029.3 0.0
29/11:30am 19.5 16.4 8.8 50 5.6 S 15 20 8 11 1030.0 1030.0 0.0
29/11:00am 18.9 15.7 8.6 51 5.3 SSE 15 24 8 13 1030.4 1030.4 0.0
29/10:30am 18.0 15.5 8.0 52 5.1 SSE 11 19 6 10 1030.8 1030.8 0.0
29/10:00am 16.8 14.3 8.2 57 4.3 SSE 11 19 6 10 1031.1 1031.1 0.0
29/09:30am 15.6 14.5 9.9 69 3.0 SE 6 13 3 7 1031.3 1031.3 0.0
29/09:00am 13.3 12.6 10.1 81 1.6 ESE 4 7 2 4 1031.4 1031.4 0.0
29/08:30am 11.2 10.1 8.6 84 1.3 SE 4 6 2 3 1031.6 1031.6 0.0
29/08:00am 9.6 9.2 8.4 92 0.6 CALM 0 0 0 0 1031.4 1031.4 0.0
29/07:30am 6.7 5.9 6.4 98 0.1 CALM 0 0 0 0 1031.3 1031.3 0.0
29/07:00am 5.4 4.3 5.1 98 0.1 CALM 0 0 0 0 1030.9 1030.9 0.0
29/06:30am 4.8 3.5 4.2 96 0.3 CALM 0 0 0 0 1030.5 1030.5 0.0
29/06:00am 5.3 4.2 4.9 97 0.2 CALM 0 0 0 0 1030.2 1030.2 0.0
29/05:30am 5.4 4.2 4.7 95 0.3 CALM 0 0 0 0 1029.7 1029.7 0.0
29/05:00am 6.3 4.9 5.6 95 0.3 N 2 2 1 1 1029.7 1029.7 0.0
29/04:30am 6.6 5.3 6.2 97 0.2 NNW 2 4 1 2 1029.6 1029.6 0.0
29/04:00am 7.3 6.6 7.0 98 0.1 CALM 0 0 0 0 1029.5 1029.5 0.0
29/03:30am 7.2 5.7 6.8 97 0.2 NNE 4 6 2 3 1029.5 1029.5 0.0
29/03:00am 7.1 6.3 6.7 97 0.2 CALM 0 0 0 0 1029.7 1029.7 0.0
29/02:30am 7.3 6.5 6.7 96 0.3 CALM 0 0 0 0 1029.9 1029.9 0.0
29/02:00am 7.7 6.7 7.3 97 0.2 N 2 2 1 1 1029.8 1029.8 0.0
29/01:30am 7.3 5.8 6.9 97 0.2 N 4 6 2 3 1030.1 1030.1 0.0
29/01:00am 7.4 6.2 6.5 94 0.4 N 2 4 1 2 1030.1 1030.1 0.0
29/12:30am 8.1 7.5 7.3 95 0.4 CALM 0 0 0 0 1030.3 1030.3 0.0
29/12:00am 8.4 7.8 7.6 95 0.4 CALM 0 0 0 0 1029.9 1029.9 0.0
 
Date/Time
EST
Temp
°C
App
Temp
°C
Dew
Point
Rel
Hum
%
Delta-T
°C
Wind Press
QNH
hPa
Press
MSL
hPa
Rain
since 9 am
mm
Dir
 
Spd
km/h
Gust
km/h
Spd
kts
Gust
kts
28/11:30pm 8.3 7.6 7.1 92 0.6 CALM 0 0 0 0 1030.1 1030.1 0.0
28/11:00pm 9.2 8.8 8.3 94 0.4 CALM 0 0 0 0 1030.1 1030.1 0.0
28/10:30pm 9.1 8.6 7.9 92 0.6 CALM 0 0 0 0 1030.2 1030.2 0.0
28/10:00pm 9.7 9.3 8.3 91 0.7 CALM 0 0 0 0 1030.3 1030.3 0.0
28/09:30pm 10.3 10.0 8.7 90 0.8 CALM 0 0 0 0 1030.1 1030.1 0.0
28/09:00pm 10.8 10.6 8.9 88 0.9 CALM 0 0 0 0 1030.2 1030.2 0.0
28/08:30pm 11.8 11.5 8.8 82 1.5 CALM 0 0 0 0 1030.1 1030.1 0.0
28/08:00pm 13.0 13.1 10.0 82 1.5 CALM 0 0 0 0 1029.9 1029.9 0.0
28/07:30pm 12.9 12.8 9.4 79 1.8 CALM 0 0 0 0 1029.6 1029.6 0.0
28/07:00pm 13.2 12.3 9.3 77 2.0 SSE 4 6 2 3 1029.3 1029.3 0.0
28/06:30pm 14.0 13.5 9.4 74 2.4 SSE 2 2 1 1 1029.0 1029.0 0.0
28/06:00pm 14.7 13.9 9.7 72 2.6 SE 4 6 2 3 1028.6 1028.6 0.0
28/05:30pm 15.4 14.2 9.7 69 3.0 SSE 6 9 3 5 1028.3 1028.3 0.0
28/05:00pm 16.7 14.6 9.9 64 3.6 SE 11 20 6 11 1028.0 1028.0 0.0
28/04:30pm 18.0 16.0 10.1 60 4.2 SE 11 19 6 10 1027.7 1027.7 0.0
28/04:00pm 18.5 15.6 9.8 57 4.6 SE 15 26 8 14 1027.4 1027.4 0.0
28/03:30pm 19.4 16.9 9.6 53 5.2 SE 13 22 7 12 1027.2 1027.2 0.0
28/03:00pm 19.8 17.1 10.2 54 5.1 ESE 15 24 8 13 1027.0 1027.0 0.0
28/02:30pm 19.3 17.2 9.8 54 5.1 SE 11 19 6 10 1027.1 1027.1 0.0
28/02:00pm 19.8 16.7 10.2 54 5.1 SE 17 30 9 16 1027.3 1027.3 0.0
28/01:30pm 20.0 17.4 10.7 55 5.1 SE 15 26 8 14 1027.5 1027.5 0.0
28/01:00pm 19.5 16.8 10.2 55 5.0 SSE 15 22 8 12 1027.7 1027.7 0.0
28/12:30pm 18.8 16.4 10.1 57 4.7 SE 13 26 7 14 1028.0 1028.0 0.0
28/12:00pm 19.5 16.8 10.2 55 5.0 SE 15 24 8 13 1028.3 1028.3 0.0
28/11:30am 19.9 17.6 10.6 55 5.1 SSE 13 19 7 10 1028.5 1028.5 0.0
28/11:00am 18.7 17.2 10.5 59 4.4 SSE 9 15 5 8 1028.8 1028.8 0.0
28/10:30am 19.1 17.2 10.6 58 4.6 SSE 11 17 6 9 1029.1 1029.1 0.0
28/10:00am 17.6 15.9 9.8 60 4.1 SSE 9 17 5 9 1029.3 1029.3 0.0
28/09:30am 16.4 14.9 9.1 62 3.8 SSE 7 15 4 8 1029.3 1029.3 0.0
28/09:00am 13.3 11.8 6.9 65 3.1 S 4 6 2 3 1029.4 1029.4 0.0
28/08:30am 12.0 10.8 6.3 68 2.7 SSE 2 4 1 2 1029.1 1029.1 0.0
28/08:00am 10.9 10.2 6.8 76 1.9 CALM 0 0 0 0 1028.8 1028.8 0.0
28/07:30am 9.1 8.2 6.0 81 1.4 CALM 0 0 0 0 1028.6 1028.6 0.0
28/07:00am 8.5 7.5 5.4 81 1.4 CALM 0 0 0 0 1028.3 1028.3 0.0
28/06:30am 8.7 7.7 5.4 80 1.5 CALM 0 0 0 0 1027.9 1027.9 0.0
28/06:00am 9.2 8.1 5.0 75 1.9 CALM 0 0 0 0 1027.6 1027.6 0.0
28/05:30am 9.2 8.1 5.2 76 1.8 CALM 0 0 0 0 1027.4 1027.4 0.0
28/05:00am 9.6 8.6 5.4 75 1.9 CALM 0 0 0 0 1027.2 1027.2 0.0
28/04:30am 9.2 8.2 5.4 77 1.7 CALM 0 0 0 0 1026.7 1026.7 0.0
28/04:00am 10.2 8.5 3.9 65 2.8 WSW 2 2 1 1 1026.6 1026.6 0.0
28/03:30am 10.6 9.0 4.5 66 2.7 SW 2 4 1 2 1026.5 1026.5 0.0
28/03:00am 10.6 9.0 4.5 66 2.7 SW 2 6 1 3 1026.5 1026.5 0.0
28/02:30am 11.4 9.2 3.4 58 3.5 SSW 4 6 2 3 1026.4 1026.4 0.0
28/02:00am 12.0 9.4 3.3 55 3.8 SSW 6 11 3 6 1026.5 1026.5 0.0
28/01:30am 12.1 10.4 3.9 57 3.7 SSW 2 4 1 2 1026.6 1026.6 0.0
28/01:00am 12.2 10.2 4.4 59 3.5 S 4 7 2 4 1026.6 1026.6 0.0
28/12:30am 13.0 10.5 3.7 53 4.2 S 6 11 3 6 1026.9 1026.9 0.0
28/12:00am 13.3 10.2 3.7 52 4.3 SSW 9 15 5 8 1026.6 1026.6 0.0
 
Date/Time
EST
Temp
°C
App
Temp
°C
Dew
Point
Rel
Hum
%
Delta-T
°C
Wind Press
QNH
hPa
Press
MSL
hPa
Rain
since 9 am
mm
Dir
 
Spd
km/h
Gust
km/h
Spd
kts
Gust
kts
27/11:30pm 13.7 11.0 3.8 51 4.5 SSW 7 15 4 8 1026.7 1026.7 0.0
27/11:00pm 14.4 11.4 4.1 50 4.7 SSW 9 15 5 8 1026.8 1026.8 0.0
27/10:30pm 14.7 11.9 5.0 52 4.6 S 9 17 5 9 1026.6 1026.6 0.0
27/10:00pm 14.6 13.2 5.7 55 4.2 WSW 2 4 1 2 1026.6 1026.6 0.0
27/09:30pm 15.6 14.3 5.8 52 4.7 W 2 6 1 3 1026.4 1026.4 0.0
27/09:00pm 15.9 13.6 5.8 51 4.8 SSW 7 17 4 9 1026.1 1026.1 0.0
27/08:30pm 16.0 14.1 6.7 54 4.6 SW 6 9 3 5 1025.7 1025.7 0.0
27/08:00pm 17.3 14.4 6.5 49 5.3 SSW 11 19 6 10 1025.5 1025.5 0.0
27/07:30pm 17.3 15.4 6.5 49 5.3 SSW 6 9 3 5 1025.3 1025.2 0.0
27/07:00pm 17.4 14.9 6.6 49 5.3 SW 9 13 5 7 1024.9 1024.8 0.0
27/06:30pm 17.7 15.8 6.9 49 5.4 SW 6 11 3 6 1024.4 1024.3 0.0
27/06:00pm 18.9 16.7 6.1 43 6.3 SW 7 15 4 8 1023.9 1023.8 0.0
27/05:30pm 19.2 16.8 5.3 40 6.8 SSW 7 13 4 7 1023.4 1023.3 0.0
27/05:00pm 19.9 17.0 4.4 36 7.5 SSW 9 17 5 9 1022.7 1022.7 0.0
27/04:30pm 20.8 17.9 4.4 34 8.0 S 9 15 5 8 1022.2 1022.2 0.0
27/04:00pm 21.4 18.6 5.3 35 8.0 SSW 9 17 5 9 1021.8 1021.8 0.0

Other Formats:

Comma delimited format used in spreadsheet applications
http://www.bom.gov.au/fwo/IDQ60801/IDQ60801.94566.axf

JavaScript Object Notation format (JSON) in row-major order
http://www.bom.gov.au/fwo/IDQ60801/IDQ60801.94566.json